PHBLT ENBR-ENTO
Flight info
| Callsign | PHBLT |
|---|---|
| Flight time | 1h 13m |
| Altitude | 2000 |
| Route | VFR/17 |
| Aircraft | PA24 |
Departure
| Time | 2026-05-04 17:38 |
|---|---|
| Airport | Bergen Airport, Flesland (ENBR) |
Arrival
| Time | 2026-05-04 18:51 |
|---|---|
| Airport | Sandefjord Airport, Torp (ENTO) |
| Time | Latitude | Longitude | Altitude | Speed | Heading |
|---|---|---|---|---|---|
| 2026-05-04 17:24 | 60.29976 | 5.22658 | 143 ft | 0 kts | 182° |
| 2026-05-04 17:31 | 60.29967 | 5.22655 | 142 ft | 0 kts | 200° |
| 2026-05-04 17:33 | 60.29901 | 5.22635 | 139 ft | 8 kts | 155° |
| 2026-05-04 17:33 | 60.29844 | 5.22622 | 141 ft | 6 kts | 212° |
| 2026-05-04 17:34 | 60.29758 | 5.22404 | 141 ft | 6 kts | 261° |
| 2026-05-04 17:34 | 60.29749 | 5.22286 | 140 ft | 10 kts | 261° |
| 2026-05-04 17:35 | 60.29577 | 5.22057 | 145 ft | 17 kts | 169° |
| 2026-05-04 17:35 | 60.29339 | 5.22138 | 155 ft | 16 kts | 171° |
| 2026-05-04 17:35 | 60.29232 | 5.22174 | 157 ft | 18 kts | 169° |
| 2026-05-04 17:36 | 60.29090 | 5.22223 | 157 ft | 19 kts | 173° |
| 2026-05-04 17:36 | 60.28985 | 5.22258 | 156 ft | 12 kts | 167° |
| 2026-05-04 17:36 | 60.28926 | 5.22237 | 155 ft | 7 kts | 239° |
| 2026-05-04 17:36 | 60.28909 | 5.22070 | 153 ft | 16 kts | 261° |
| 2026-05-04 17:37 | 60.28921 | 5.21957 | 157 ft | 5 kts | 354° |
| 2026-05-04 17:37 | 60.28924 | 5.21956 | 157 ft | 0 kts | 352° |
| 2026-05-04 17:37 | 60.28973 | 5.21939 | 156 ft | 35 kts | 349° |
| 2026-05-04 17:37 | 60.29363 | 5.21831 | 237 ft | 69 kts | 340° |
| 2026-05-04 17:38 | 60.29860 | 5.21831 | 496 ft | 74 kts | 17° |
| 2026-05-04 17:38 | 60.30183 | 5.22800 | 682 ft | 103 kts | 76° |
| 2026-05-04 17:38 | 60.29934 | 5.24318 | 845 ft | 128 kts | 109° |
| 2026-05-04 17:38 | 60.29495 | 5.26028 | 1017 ft | 143 kts | 119° |
| 2026-05-04 17:39 | 60.28286 | 5.29413 | 1435 ft | 154 kts | 131° |
| 2026-05-04 17:39 | 60.27503 | 5.30933 | 1568 ft | 161 kts | 138° |
| 2026-05-04 17:39 | 60.26701 | 5.32493 | 1769 ft | 161 kts | 132° |
| 2026-05-04 17:40 | 60.25887 | 5.34103 | 1863 ft | 167 kts | 135° |
| 2026-05-04 17:40 | 60.25089 | 5.35835 | 2011 ft | 168 kts | 124° |
| 2026-05-04 17:40 | 60.24474 | 5.37759 | 2195 ft | 160 kts | 125° |
| 2026-05-04 17:40 | 60.24018 | 5.38947 | 2270 ft | 163 kts | 131° |
| 2026-05-04 17:41 | 60.23202 | 5.40507 | 2375 ft | 161 kts | 142° |
| 2026-05-04 17:41 | 60.22348 | 5.41946 | 2549 ft | 161 kts | 140° |
| 2026-05-04 17:41 | 60.21507 | 5.43463 | 2640 ft | 163 kts | 140° |
| 2026-05-04 17:41 | 60.20661 | 5.45023 | 2752 ft | 166 kts | 138° |
| 2026-05-04 17:42 | 60.19814 | 5.46605 | 2877 ft | 165 kts | 138° |
| 2026-05-04 17:42 | 60.18977 | 5.48169 | 2989 ft | 164 kts | 138° |
| 2026-05-04 17:42 | 60.18122 | 5.49721 | 3109 ft | 166 kts | 139° |
| 2026-05-04 17:42 | 60.17257 | 5.51314 | 3117 ft | 172 kts | 139° |
| 2026-05-04 17:43 | 60.16373 | 5.52935 | 3125 ft | 173 kts | 138° |
| 2026-05-04 17:43 | 60.15480 | 5.54572 | 3145 ft | 174 kts | 138° |
| 2026-05-04 17:43 | 60.14590 | 5.56206 | 3212 ft | 174 kts | 139° |
| 2026-05-04 17:43 | 60.13690 | 5.57852 | 3231 ft | 176 kts | 138° |
| 2026-05-04 17:44 | 60.12807 | 5.59496 | 3270 ft | 175 kts | 138° |
| 2026-05-04 17:44 | 60.11913 | 5.61139 | 3291 ft | 176 kts | 139° |
| 2026-05-04 17:44 | 60.11003 | 5.62797 | 3301 ft | 177 kts | 139° |
| 2026-05-04 17:44 | 60.10095 | 5.64464 | 3335 ft | 177 kts | 139° |
| 2026-05-04 17:45 | 60.09187 | 5.66123 | 3367 ft | 177 kts | 139° |
| 2026-05-04 17:45 | 60.08286 | 5.67778 | 3398 ft | 175 kts | 139° |
| 2026-05-04 17:45 | 60.07385 | 5.69435 | 3430 ft | 177 kts | 138° |
| 2026-05-04 17:45 | 60.06482 | 5.71096 | 3463 ft | 175 kts | 138° |
| 2026-05-04 17:46 | 60.05579 | 5.72747 | 3509 ft | 176 kts | 138° |
| 2026-05-04 17:46 | 60.04679 | 5.74416 | 3520 ft | 177 kts | 138° |
| 2026-05-04 17:46 | 60.03753 | 5.76013 | 3540 ft | 180 kts | 140° |
| 2026-05-04 17:46 | 60.02809 | 5.77670 | 3579 ft | 180 kts | 138° |
| 2026-05-04 17:47 | 60.01873 | 5.79323 | 3614 ft | 179 kts | 139° |
| 2026-05-04 17:47 | 60.00919 | 5.80988 | 3556 ft | 183 kts | 139° |
| 2026-05-04 17:47 | 59.99974 | 5.82632 | 3672 ft | 179 kts | 139° |
| 2026-05-04 17:47 | 59.99036 | 5.84259 | 3747 ft | 176 kts | 139° |
| 2026-05-04 17:48 | 59.98121 | 5.85859 | 3854 ft | 175 kts | 139° |
| 2026-05-04 17:48 | 59.97203 | 5.87478 | 3882 ft | 177 kts | 139° |
| 2026-05-04 17:48 | 59.96279 | 5.89094 | 3984 ft | 175 kts | 139° |
| 2026-05-04 17:48 | 59.95364 | 5.90712 | 4040 ft | 177 kts | 138° |
| 2026-05-04 17:49 | 59.94438 | 5.92337 | 4133 ft | 176 kts | 139° |
| 2026-05-04 17:49 | 59.93530 | 5.93929 | 4244 ft | 176 kts | 139° |
| 2026-05-04 17:49 | 59.92611 | 5.95559 | 4293 ft | 178 kts | 139° |
| 2026-05-04 17:49 | 59.91685 | 5.97194 | 4355 ft | 178 kts | 140° |
| 2026-05-04 17:50 | 59.90748 | 5.98797 | 4405 ft | 178 kts | 139° |
| 2026-05-04 17:50 | 59.89813 | 6.00430 | 4450 ft | 180 kts | 139° |
| 2026-05-04 17:50 | 59.88873 | 6.02081 | 4498 ft | 180 kts | 139° |
| 2026-05-04 17:50 | 59.87939 | 6.03714 | 4577 ft | 179 kts | 139° |
| 2026-05-04 17:51 | 59.87065 | 6.05501 | 4587 ft | 182 kts | 124° |
| 2026-05-04 17:51 | 59.86395 | 6.07642 | 4626 ft | 179 kts | 118° |
| 2026-05-04 17:51 | 59.85796 | 6.09803 | 4639 ft | 183 kts | 114° |
| 2026-05-04 17:51 | 59.85236 | 6.12134 | 4544 ft | 187 kts | 113° |
| 2026-05-04 17:52 | 59.84697 | 6.14428 | 4666 ft | 180 kts | 112° |
| 2026-05-04 17:52 | 59.84164 | 6.16699 | 4650 ft | 184 kts | 113° |
| 2026-05-04 17:52 | 59.83615 | 6.18999 | 4573 ft | 183 kts | 112° |
| 2026-05-04 17:52 | 59.83070 | 6.21280 | 4575 ft | 182 kts | 112° |
| 2026-05-04 17:53 | 59.82525 | 6.23530 | 4543 ft | 184 kts | 114° |
| 2026-05-04 17:53 | 59.81966 | 6.25800 | 4586 ft | 182 kts | 114° |
| 2026-05-04 17:53 | 59.81424 | 6.28071 | 4666 ft | 182 kts | 112° |
| 2026-05-04 17:53 | 59.80912 | 6.30333 | 4791 ft | 178 kts | 115° |
| 2026-05-04 17:54 | 59.80355 | 6.32541 | 4812 ft | 180 kts | 112° |
| 2026-05-04 17:54 | 59.79826 | 6.34799 | 4851 ft | 180 kts | 114° |
| 2026-05-04 17:54 | 59.79295 | 6.37044 | 4903 ft | 179 kts | 113° |
| 2026-05-04 17:54 | 59.78757 | 6.39292 | 4935 ft | 181 kts | 112° |
| 2026-05-04 17:55 | 59.78240 | 6.41576 | 4989 ft | 181 kts | 112° |
| 2026-05-04 17:55 | 59.77699 | 6.43841 | 4964 ft | 181 kts | 112° |
| 2026-05-04 17:55 | 59.77204 | 6.46151 | 4962 ft | 182 kts | 117° |
| 2026-05-04 17:55 | 59.76608 | 6.48382 | 4881 ft | 181 kts | 111° |
| 2026-05-04 17:56 | 59.76095 | 6.50630 | 4983 ft | 178 kts | 112° |
| 2026-05-04 17:56 | 59.75525 | 6.52843 | 4978 ft | 181 kts | 115° |
| 2026-05-04 17:56 | 59.75017 | 6.55112 | 4995 ft | 180 kts | 113° |
| 2026-05-04 17:56 | 59.74522 | 6.57396 | 5073 ft | 181 kts | 114° |
| 2026-05-04 17:57 | 59.74066 | 6.59777 | 5016 ft | 187 kts | 112° |
| 2026-05-04 17:57 | 59.73578 | 6.62115 | 5097 ft | 184 kts | 114° |
| 2026-05-04 17:57 | 59.73072 | 6.64480 | 5039 ft | 188 kts | 113° |
| 2026-05-04 17:57 | 59.72580 | 6.66865 | 5067 ft | 185 kts | 114° |
| 2026-05-04 17:58 | 59.72125 | 6.69235 | 5121 ft | 186 kts | 111° |
| 2026-05-04 17:58 | 59.71691 | 6.71620 | 5090 ft | 183 kts | 115° |
| 2026-05-04 17:58 | 59.71177 | 6.73928 | 5078 ft | 185 kts | 114° |
| 2026-05-04 17:58 | 59.70686 | 6.76288 | 5139 ft | 186 kts | 115° |
| 2026-05-04 17:59 | 59.70206 | 6.78678 | 5149 ft | 188 kts | 114° |
| 2026-05-04 17:59 | 59.69701 | 6.81062 | 5184 ft | 187 kts | 111° |
| 2026-05-04 17:59 | 59.68745 | 6.85837 | 5222 ft | 188 kts | 111° |
| 2026-05-04 18:00 | 59.68268 | 6.88245 | 5258 ft | 188 kts | 114° |
| 2026-05-04 18:00 | 59.67779 | 6.90644 | 5265 ft | 189 kts | 112° |
| 2026-05-04 18:00 | 59.67270 | 6.93041 | 5256 ft | 188 kts | 114° |
| 2026-05-04 18:00 | 59.66786 | 6.95452 | 5268 ft | 189 kts | 112° |
| 2026-05-04 18:01 | 59.66308 | 6.97877 | 5305 ft | 189 kts | 112° |
| 2026-05-04 18:01 | 59.65814 | 7.00255 | 5330 ft | 189 kts | 114° |
| 2026-05-04 18:01 | 59.65310 | 7.02657 | 5359 ft | 189 kts | 114° |
| 2026-05-04 18:02 | 59.64347 | 7.07509 | 5339 ft | 189 kts | 114° |
| 2026-05-04 18:02 | 59.63861 | 7.09923 | 5363 ft | 189 kts | 111° |
| 2026-05-04 18:02 | 59.63359 | 7.12333 | 5406 ft | 190 kts | 114° |
| 2026-05-04 18:02 | 59.62843 | 7.14734 | 5357 ft | 189 kts | 114° |
| 2026-05-04 18:03 | 59.62367 | 7.17167 | 5335 ft | 190 kts | 112° |
| 2026-05-04 18:03 | 59.61881 | 7.19601 | 5377 ft | 195 kts | 112° |
| 2026-05-04 18:03 | 59.61398 | 7.22166 | 5350 ft | 201 kts | 112° |
| 2026-05-04 18:03 | 59.60905 | 7.24736 | 5367 ft | 199 kts | 113° |
| 2026-05-04 18:04 | 59.60411 | 7.27291 | 5384 ft | 200 kts | 112° |
| 2026-05-04 18:04 | 59.59889 | 7.29845 | 5416 ft | 200 kts | 115° |
| 2026-05-04 18:04 | 59.58921 | 7.34974 | 5391 ft | 201 kts | 113° |
| 2026-05-04 18:05 | 59.58414 | 7.37531 | 5378 ft | 200 kts | 114° |
| 2026-05-04 18:05 | 59.57914 | 7.40083 | 5380 ft | 200 kts | 114° |
| 2026-05-04 18:05 | 59.57418 | 7.42643 | 5425 ft | 200 kts | 114° |
| 2026-05-04 18:05 | 59.56931 | 7.45225 | 5449 ft | 201 kts | 113° |
| 2026-05-04 18:06 | 59.55919 | 7.50350 | 5519 ft | 199 kts | 114° |
| 2026-05-04 18:06 | 59.55450 | 7.52917 | 5534 ft | 199 kts | 112° |
| 2026-05-04 18:06 | 59.54942 | 7.55458 | 5546 ft | 198 kts | 117° |
| 2026-05-04 18:07 | 59.54434 | 7.57970 | 5539 ft | 198 kts | 114° |
| 2026-05-04 18:07 | 59.53959 | 7.60522 | 5526 ft | 198 kts | 116° |
| 2026-05-04 18:07 | 59.53477 | 7.63089 | 5437 ft | 201 kts | 107° |
| 2026-05-04 18:07 | 59.53029 | 7.65686 | 5486 ft | 199 kts | 116° |
| 2026-05-04 18:08 | 59.52543 | 7.68185 | 5436 ft | 198 kts | 111° |
| 2026-05-04 18:08 | 59.52009 | 7.70689 | 5281 ft | 198 kts | 115° |
| 2026-05-04 18:08 | 59.51518 | 7.73218 | 5315 ft | 198 kts | 112° |
| 2026-05-04 18:08 | 59.51046 | 7.75762 | 5280 ft | 198 kts | 113° |
| 2026-05-04 18:09 | 59.50021 | 7.80816 | 5384 ft | 199 kts | 118° |
| 2026-05-04 18:09 | 59.48942 | 7.85894 | 5324 ft | 200 kts | 112° |
| 2026-05-04 18:10 | 59.48434 | 7.88436 | 5334 ft | 200 kts | 114° |
| 2026-05-04 18:10 | 59.47920 | 7.90990 | 5342 ft | 201 kts | 112° |
| 2026-05-04 18:10 | 59.47409 | 7.93540 | 5317 ft | 199 kts | 115° |
| 2026-05-04 18:10 | 59.46915 | 7.96043 | 5063 ft | 200 kts | 114° |
| 2026-05-04 18:11 | 59.46417 | 7.98604 | 4923 ft | 200 kts | 113° |
| 2026-05-04 18:11 | 59.45907 | 8.01117 | 4822 ft | 196 kts | 114° |
| 2026-05-04 18:11 | 59.45445 | 8.03649 | 4688 ft | 197 kts | 112° |
| 2026-05-04 18:11 | 59.44938 | 8.06149 | 4559 ft | 196 kts | 114° |
| 2026-05-04 18:12 | 59.44432 | 8.08625 | 4489 ft | 194 kts | 114° |
| 2026-05-04 18:12 | 59.43938 | 8.11101 | 4380 ft | 195 kts | 113° |
| 2026-05-04 18:12 | 59.43454 | 8.13579 | 4271 ft | 193 kts | 112° |
| 2026-05-04 18:12 | 59.42956 | 8.16033 | 4166 ft | 194 kts | 114° |
| 2026-05-04 18:13 | 59.42471 | 8.18519 | 4029 ft | 194 kts | 114° |
| 2026-05-04 18:13 | 59.41960 | 8.20954 | 3942 ft | 191 kts | 115° |
| 2026-05-04 18:13 | 59.40981 | 8.25762 | 3727 ft | 191 kts | 113° |
| 2026-05-04 18:14 | 59.40508 | 8.28220 | 3569 ft | 194 kts | 111° |
| 2026-05-04 18:14 | 59.40072 | 8.30721 | 3476 ft | 190 kts | 110° |
| 2026-05-04 18:14 | 59.39666 | 8.33186 | 3324 ft | 191 kts | 106° |
| 2026-05-04 18:15 | 59.39026 | 8.38153 | 3080 ft | 189 kts | 104° |
| 2026-05-04 18:15 | 59.38817 | 8.43215 | 2871 ft | 188 kts | 89° |
| 2026-05-04 18:15 | 59.38787 | 8.45799 | 2792 ft | 191 kts | 96° |
| 2026-05-04 18:16 | 59.38483 | 8.48331 | 2657 ft | 191 kts | 114° |
| 2026-05-04 18:16 | 59.37861 | 8.50594 | 2442 ft | 184 kts | 123° |
| 2026-05-04 18:16 | 59.37219 | 8.52705 | 2469 ft | 178 kts | 127° |
| 2026-05-04 18:17 | 59.35941 | 8.56940 | 2314 ft | 172 kts | 129° |
| 2026-05-04 18:17 | 59.35252 | 8.58807 | 2183 ft | 170 kts | 131° |
| 2026-05-04 18:17 | 59.33783 | 8.62407 | 1911 ft | 163 kts | 140° |
| 2026-05-04 18:18 | 59.33006 | 8.64048 | 1741 ft | 167 kts | 137° |
| 2026-05-04 18:18 | 59.32246 | 8.65602 | 1696 ft | 148 kts | 129° |
| 2026-05-04 18:18 | 59.31905 | 8.67558 | 1405 ft | 158 kts | 92° |
| 2026-05-04 18:18 | 59.31676 | 8.69609 | 1282 ft | 155 kts | 134° |
| 2026-05-04 18:19 | 59.30054 | 8.71839 | 1086 ft | 147 kts | 117° |
| 2026-05-04 18:19 | 59.30107 | 8.73688 | 1076 ft | 139 kts | 65° |
| 2026-05-04 18:19 | 59.30540 | 8.75359 | 1128 ft | 134 kts | 65° |
| 2026-05-04 18:20 | 59.30887 | 8.77078 | 1122 ft | 139 kts | 70° |
| 2026-05-04 18:20 | 59.31095 | 8.78913 | 1122 ft | 138 kts | 90° |
| 2026-05-04 18:20 | 59.30940 | 8.80761 | 1148 ft | 136 kts | 110° |
| 2026-05-04 18:20 | 59.30607 | 8.82463 | 1173 ft | 133 kts | 116° |
| 2026-05-04 18:21 | 59.30329 | 8.84223 | 1147 ft | 138 kts | 105° |
| 2026-05-04 18:21 | 59.30265 | 8.86062 | 1140 ft | 133 kts | 92° |
| 2026-05-04 18:21 | 59.30351 | 8.87888 | 1139 ft | 138 kts | 84° |
| 2026-05-04 18:21 | 59.30486 | 8.89739 | 1167 ft | 136 kts | 79° |
| 2026-05-04 18:22 | 59.30689 | 8.91607 | 1154 ft | 141 kts | 77° |
| 2026-05-04 18:22 | 59.30870 | 8.93470 | 1173 ft | 139 kts | 79° |
| 2026-05-04 18:22 | 59.31181 | 8.95250 | 1160 ft | 137 kts | 64° |
| 2026-05-04 18:22 | 59.31622 | 8.96846 | 1145 ft | 134 kts | 57° |
| 2026-05-04 18:23 | 59.32094 | 8.98433 | 971 ft | 135 kts | 63° |
| 2026-05-04 18:23 | 59.32341 | 9.00236 | 873 ft | 140 kts | 85° |
| 2026-05-04 18:23 | 59.32211 | 9.02061 | 742 ft | 135 kts | 115° |
| 2026-05-04 18:23 | 59.31636 | 9.03471 | 768 ft | 130 kts | 147° |
| 2026-05-04 18:24 | 59.30885 | 9.04256 | 813 ft | 120 kts | 172° |
| 2026-05-04 18:24 | 59.30090 | 9.04744 | 748 ft | 121 kts | 155° |
| 2026-05-04 18:24 | 59.29608 | 9.06066 | 658 ft | 125 kts | 97° |
| 2026-05-04 18:24 | 59.29915 | 9.07673 | 610 ft | 132 kts | 53° |
| 2026-05-04 18:25 | 59.30292 | 9.09207 | 575 ft | 129 kts | 81° |
| 2026-05-04 18:25 | 59.30258 | 9.10770 | 686 ft | 120 kts | 81° |
| 2026-05-04 18:25 | 59.30502 | 9.12238 | 697 ft | 105 kts | 80° |
| 2026-05-04 18:25 | 59.30438 | 9.13591 | 682 ft | 98 kts | 106° |
| 2026-05-04 18:26 | 59.30591 | 9.14907 | 662 ft | 103 kts | 67° |
| 2026-05-04 18:26 | 59.30395 | 9.16057 | 656 ft | 89 kts | 151° |
| 2026-05-04 18:26 | 59.29885 | 9.16338 | 697 ft | 65 kts | 211° |
| 2026-05-04 18:26 | 59.29533 | 9.15847 | 595 ft | 63 kts | 237° |
| 2026-05-04 18:27 | 59.29480 | 9.14965 | 392 ft | 81 kts | 291° |
| 2026-05-04 18:27 | 59.29667 | 9.14053 | 204 ft | 20 kts | 137° |
| 2026-05-04 18:27 | 59.29652 | 9.14025 | 203 ft | 0 kts | 358° |
| 2026-05-04 18:28 | 59.29661 | 9.13961 | 206 ft | 11 kts | 281° |
| 2026-05-04 18:28 | 59.29668 | 9.13848 | 210 ft | 6 kts | 219° |
| 2026-05-04 18:28 | 59.29637 | 9.13808 | 208 ft | 3 kts | 282° |
| 2026-05-04 18:29 | 59.29649 | 9.13816 | 205 ft | 6 kts | 110° |
| 2026-05-04 18:29 | 59.29646 | 9.13780 | 205 ft | 7 kts | 1° |
| 2026-05-04 18:29 | 59.29652 | 9.13783 | 202 ft | 0 kts | 26° |
| 2026-05-04 18:33 | 59.29658 | 9.13799 | 205 ft | 6 kts | 73° |
| 2026-05-04 18:33 | 59.29677 | 9.13854 | 208 ft | 5 kts | 306° |
| 2026-05-04 18:33 | 59.29724 | 9.13592 | 201 ft | 48 kts | 288° |
| 2026-05-04 18:33 | 59.29903 | 9.12799 | 311 ft | 72 kts | 285° |
| 2026-05-04 18:34 | 59.30203 | 9.11974 | 538 ft | 80 kts | 326° |
| 2026-05-04 18:34 | 59.30773 | 9.12160 | 728 ft | 102 kts | 31° |
| 2026-05-04 18:34 | 59.31324 | 9.13129 | 998 ft | 110 kts | 36° |
| 2026-05-04 18:34 | 59.31737 | 9.14485 | 1232 ft | 122 kts | 86° |
| 2026-05-04 18:35 | 59.31283 | 9.15972 | 1185 ft | 143 kts | 130° |
| 2026-05-04 18:35 | 59.30812 | 9.17716 | 1270 ft | 148 kts | 114° |
| 2026-05-04 18:35 | 59.30429 | 9.19634 | 1428 ft | 154 kts | 114° |
| 2026-05-04 18:35 | 59.29989 | 9.21532 | 1505 ft | 156 kts | 121° |
| 2026-05-04 18:36 | 59.29548 | 9.23538 | 1557 ft | 165 kts | 121° |
| 2026-05-04 18:36 | 59.29264 | 9.25715 | 1431 ft | 166 kts | 101° |
| 2026-05-04 18:36 | 59.29126 | 9.27967 | 1492 ft | 166 kts | 100° |
| 2026-05-04 18:36 | 59.28871 | 9.30172 | 1489 ft | 166 kts | 105° |
| 2026-05-04 18:37 | 59.28667 | 9.32421 | 1512 ft | 169 kts | 102° |
| 2026-05-04 18:37 | 59.28383 | 9.34639 | 1539 ft | 169 kts | 112° |
| 2026-05-04 18:37 | 59.27881 | 9.36712 | 1549 ft | 169 kts | 128° |
| 2026-05-04 18:37 | 59.27154 | 9.38447 | 1539 ft | 165 kts | 137° |
| 2026-05-04 18:38 | 59.26394 | 9.40106 | 1557 ft | 164 kts | 139° |
| 2026-05-04 18:38 | 59.25578 | 9.41726 | 1502 ft | 168 kts | 145° |
| 2026-05-04 18:38 | 59.24701 | 9.43265 | 1346 ft | 176 kts | 144° |
| 2026-05-04 18:38 | 59.23770 | 9.44729 | 1396 ft | 171 kts | 154° |
| 2026-05-04 18:39 | 59.22749 | 9.45927 | 1302 ft | 170 kts | 154° |
| 2026-05-04 18:39 | 59.21824 | 9.47299 | 1195 ft | 169 kts | 144° |
| 2026-05-04 18:39 | 59.21057 | 9.49037 | 1084 ft | 170 kts | 128° |
| 2026-05-04 18:39 | 59.20535 | 9.51187 | 911 ft | 176 kts | 116° |
| 2026-05-04 18:40 | 59.19913 | 9.53164 | 906 ft | 174 kts | 133° |
| 2026-05-04 18:40 | 59.19202 | 9.55031 | 937 ft | 166 kts | 131° |
| 2026-05-04 18:40 | 59.18627 | 9.56957 | 1021 ft | 168 kts | 122° |
| 2026-05-04 18:40 | 59.17997 | 9.58849 | 1049 ft | 164 kts | 137° |
| 2026-05-04 18:41 | 59.17137 | 9.60295 | 1096 ft | 165 kts | 148° |
| 2026-05-04 18:41 | 59.16116 | 9.61242 | 1167 ft | 162 kts | 167° |
| 2026-05-04 18:41 | 59.15047 | 9.61850 | 1236 ft | 156 kts | 173° |
| 2026-05-04 18:41 | 59.14006 | 9.62347 | 1287 ft | 153 kts | 174° |
| 2026-05-04 18:42 | 59.12979 | 9.62885 | 1330 ft | 153 kts | 173° |
| 2026-05-04 18:42 | 59.11934 | 9.63458 | 1375 ft | 158 kts | 174° |
| 2026-05-04 18:42 | 59.10874 | 9.64047 | 1414 ft | 159 kts | 171° |
| 2026-05-04 18:42 | 59.09868 | 9.65034 | 1397 ft | 166 kts | 157° |
| 2026-05-04 18:43 | 59.08941 | 9.66440 | 1366 ft | 171 kts | 143° |
| 2026-05-04 18:43 | 59.08226 | 9.68328 | 1305 ft | 176 kts | 124° |
| 2026-05-04 18:43 | 59.07668 | 9.70461 | 1378 ft | 177 kts | 122° |
| 2026-05-04 18:43 | 59.07147 | 9.72628 | 1433 ft | 177 kts | 118° |
| 2026-05-04 18:44 | 59.06754 | 9.74917 | 1404 ft | 180 kts | 111° |
| 2026-05-04 18:44 | 59.06508 | 9.76443 | 1490 ft | 178 kts | 109° |
| 2026-05-04 18:44 | 59.05861 | 9.79397 | 1467 ft | 180 kts | 130° |
| 2026-05-04 18:44 | 59.05208 | 9.81398 | 1537 ft | 175 kts | 123° |
| 2026-05-04 18:45 | 59.04715 | 9.83567 | 1505 ft | 179 kts | 112° |
| 2026-05-04 18:45 | 59.04482 | 9.85977 | 1448 ft | 184 kts | 98° |
| 2026-05-04 18:45 | 59.04608 | 9.88458 | 1443 ft | 187 kts | 78° |
| 2026-05-04 18:45 | 59.04880 | 9.90902 | 1543 ft | 184 kts | 76° |
| 2026-05-04 18:46 | 59.05302 | 9.93249 | 1556 ft | 186 kts | 63° |
| 2026-05-04 18:46 | 59.06114 | 9.95208 | 1473 ft | 183 kts | 44° |
| 2026-05-04 18:46 | 59.06873 | 9.97107 | 1515 ft | 175 kts | 51° |
| 2026-05-04 18:46 | 59.07571 | 9.99043 | 1301 ft | 176 kts | 50° |
| 2026-05-04 18:47 | 59.08267 | 10.01023 | 1226 ft | 173 kts | 50° |
| 2026-05-04 18:47 | 59.08961 | 10.02892 | 1130 ft | 170 kts | 51° |
| 2026-05-04 18:47 | 59.09640 | 10.04792 | 937 ft | 172 kts | 52° |
| 2026-05-04 18:47 | 59.10304 | 10.06682 | 830 ft | 166 kts | 54° |
| 2026-05-04 18:48 | 59.10909 | 10.08608 | 764 ft | 166 kts | 58° |
| 2026-05-04 18:48 | 59.11485 | 10.10437 | 838 ft | 158 kts | 55° |
| 2026-05-04 18:48 | 59.12038 | 10.12327 | 668 ft | 166 kts | 57° |
| 2026-05-04 18:48 | 59.12608 | 10.14226 | 720 ft | 154 kts | 59° |
| 2026-05-04 18:49 | 59.13164 | 10.16005 | 680 ft | 157 kts | 59° |
| 2026-05-04 18:49 | 59.13619 | 10.17907 | 733 ft | 150 kts | 65° |
| 2026-05-04 18:49 | 59.14018 | 10.19766 | 742 ft | 149 kts | 69° |
| 2026-05-04 18:49 | 59.14315 | 10.21697 | 822 ft | 145 kts | 72° |
| 2026-05-04 18:50 | 59.14659 | 10.23518 | 793 ft | 139 kts | 63° |
| 2026-05-04 18:50 | 59.15096 | 10.25090 | 704 ft | 122 kts | 54° |
| 2026-05-04 18:50 | 59.15713 | 10.25992 | 676 ft | 105 kts | 359° |
| 2026-05-04 18:50 | 59.16377 | 10.26006 | 583 ft | 88 kts | 342° |
| 2026-05-04 18:51 | 59.16956 | 10.25930 | 450 ft | 85 kts | 344° |
| 2026-05-04 18:51 | 59.17541 | 10.25900 | 322 ft | 78 kts | 346° |
| 2026-05-04 18:51 | 59.18041 | 10.25878 | 272 ft | 65 kts | 353° |
| 2026-05-04 18:51 | 59.18407 | 10.25864 | 273 ft | 45 kts | 358° |
| 2026-05-04 18:52 | 59.18495 | 10.25740 | 273 ft | 18 kts | 236° |
| 2026-05-04 18:52 | 59.18509 | 10.25672 | 273 ft | 5 kts | 3° |
| 2026-05-04 18:52 | 59.18516 | 10.25672 | 273 ft | 8 kts | 1° |
| 2026-05-04 18:52 | 59.18564 | 10.25655 | 273 ft | 10 kts | 14° |
| 2026-05-04 18:53 | 59.18596 | 10.25634 | 273 ft | 3 kts | 256° |
| 2026-05-04 18:53 | 59.18595 | 10.25622 | 273 ft | 0 kts | 268° |